Latest Weather Observations for Mount Hotham

IDV60801

Issued at 12:32 pm EDT Friday 20 October 2017 (issued every 30 minutes, with the page automatically refreshed every 10 minutes)

About weather observations | Map of weather stations | Latest weather observations for VIC | Other Formats
Station Details ID: 083085 Name: MOUNT HOTHAM Lat: -36.98 Lon: 147.13 Height: 1849.0 m
Data from the previous 72 hours. | See also: Recent months at Mount Hotham
Date/Time
EDT
Temp
°C
App
Temp
°C
Dew
Point
°C
Rel
Hum
%
Delta-T
°C
Wind Press
QNH
hPa
Press
MSL
hPa
Rain since
9am
mm
Dir  Spd
km/h
Gust
km/h
Spd
kts
Gust
kts
20/12:30pm 2.2 - - - - SSE 17 22 9 12 - - -
20/12:00pm 2.1 - - - - SSE 17 22 9 12 - - -
20/11:30am 2.4 - - - - SSE 15 20 8 11 - - -
20/11:00am 2.6 - - - - SE 15 20 8 11 - - -
20/10:30am 2.2 - - - - ESE 13 17 7 9 - - -
20/10:00am 2.3 - - - - ESE 13 17 7 9 - - -
20/09:30am 2.4 - - - - E 15 20 8 11 - - -
20/09:00am 2.7 - - - - ESE 13 17 7 9 - - -
20/08:30am 3.5 - - - - E 11 17 6 9 - - -
20/08:00am 3.6 - - - - NW 6 9 3 5 - - -
20/07:30am 5.4 - - - - NW 15 24 8 13 - - -
20/07:00am 6.2 - - - - NW 17 22 9 12 - - -
20/06:30am 6.2 - - - - NW 20 30 11 16 - - -
20/06:00am 6.3 - - - - NW 20 24 11 13 - - -
20/05:30am 6.6 - - - - NW 22 32 12 17 - - -
20/05:00am 6.9 - - - - NW 22 32 12 17 - - -
20/04:30am 7.3 - - - - NW 24 32 13 17 - - -
20/04:00am 7.1 - - - - NNW 26 32 14 17 - - -
20/03:30am 7.4 - - - - NW 22 32 12 17 - - -
20/03:00am 7.7 - - - - NW 24 37 13 20 - - -
20/02:30am 8.1 - - - - NW 22 32 12 17 - - -
20/02:00am 8.1 - - - - NW 22 30 12 16 - - -
20/01:30am 8.2 - - - - NNW 15 24 8 13 - - -
20/01:00am 8.3 - - - - NW 19 26 10 14 - - -
20/12:30am 8.2 - - - - NNW 13 22 7 12 - - -
20/12:00am 8.9 - - - - NNW 24 37 13 20 - - -
 
Date/Time
EDT
Temp
°C
App
Temp
°C
Dew
Point
°C
Rel
Hum
%
Delta-T
°C
Wind Press
QNH
hPa
Press
MSL
hPa
Rain since
9am
mm
Dir  Spd
km/h
Gust
km/h
Spd
kts
Gust
kts
19/11:30pm 9.1 - - - - NW 22 33 12 18 - - -
19/11:00pm 9.1 - - - - WNW 19 26 10 14 - - -
19/10:30pm 9.5 - - - - W 19 28 10 15 - - -
19/10:00pm 9.5 - - - - W 20 33 11 18 - - -
19/09:30pm 9.5 - - - - WSW 24 43 13 23 - - -
19/09:00pm 9.5 - - - - WSW 24 43 13 23 - - -
19/08:30pm 9.4 - - - - WNW 24 37 13 20 - - -
19/08:00pm 10.0 - - - - NW 20 37 11 20 - - -
19/07:30pm 10.0 - - - - WSW 20 30 11 16 - - -
19/07:00pm 9.5 - - - - NW 22 33 12 18 - - -
19/06:30pm 9.8 - - - - N 26 35 14 19 - - -
19/06:00pm 9.8 - - - - NW 32 46 17 25 - - -
19/05:37pm 10.3 - - - - NNW 39 61 21 33 - - -
19/05:30pm 10.4 - - - - N 43 61 23 33 - - -
19/05:27pm 10.5 - - - - N 39 57 21 31 - - -
19/05:20pm 10.4 - - - - N 37 46 20 25 - - -
19/05:17pm 10.5 - - - - N 37 46 20 25 - - -
19/05:00pm 10.6 - - - - N 39 57 21 31 - - -
19/04:41pm 10.4 - - - - NNW 41 50 22 27 - - -
19/04:38pm 10.3 - - - - NNW 41 50 22 27 - - -
19/04:30pm 10.5 - - - - N 39 50 21 27 - - -
19/04:25pm 10.4 - - - - NNW 35 44 19 24 - - -
19/04:15pm 10.3 - - - - NNW 39 56 21 30 - - -
19/04:00pm 10.5 - - - - N 43 59 23 32 - - -
19/03:32pm 10.3 - - - - N 46 65 25 35 - - -
19/03:30pm 10.3 - - - - N 46 63 25 34 - - -
19/03:00pm 10.0 - - - - N 50 72 27 39 - - -
19/02:47pm 9.7 - - - - N 48 67 26 36 - - -
19/02:30pm 9.6 - - - - N 46 57 25 31 - - -
19/02:00pm 9.7 - - - - N 46 72 25 39 - - -
19/01:30pm 9.7 - - - - N 54 74 29 40 - - -
19/01:03pm 9.2 - - - - N 54 72 29 39 - - -
19/01:00pm 9.2 - - - - NNE 57 74 31 40 - - -
19/12:30pm 8.8 - - - - N 54 72 29 39 - - -
19/12:00pm 8.8 - - - - N 52 72 28 39 - - -
19/11:30am 8.6 - - - - N 65 89 35 48 - - -
19/11:00am 8.6 - - - - N 65 91 35 49 - - -
19/10:30am 8.5 - - - - NNE 69 93 37 50 - - -
19/10:01am 8.1 - - - - N 63 82 34 44 - - -
19/10:00am 8.0 - - - - N 65 82 35 44 - - -
19/09:30am 8.1 - - - - N 61 93 33 50 - - -
19/09:00am 7.6 - - - - N 63 83 34 45 - - -
19/08:39am 7.9 - - - - N 56 80 30 43 - - -
19/08:30am 7.7 - - - - N 56 72 30 39 - - -
19/08:00am 8.7 - - - - N 56 78 30 42 - - -
19/07:30am 9.5 - - - - N 54 74 29 40 - - -
19/07:00am 9.4 - - - - NNE 57 82 31 44 - - -
19/06:49am 9.6 - - - - N 54 74 29 40 - - -
19/06:30am 10.1 - - - - NNE 50 67 27 36 - - -
19/06:00am 10.2 - - - - N 52 72 28 39 - - -
19/05:30am 10.3 - - - - NNE 41 59 22 32 - - -
19/05:26am 10.4 - - - - NNE 41 59 22 32 - - -
19/05:00am 10.3 - - - - NNE 44 57 24 31 - - -
19/04:30am 10.3 - - - - NNE 50 63 27 34 - - -
19/04:00am 10.5 - - - - N 50 65 27 35 - - -
19/03:45am 10.4 - - - - N 54 72 29 39 - - -
19/03:30am 10.4 - - - - N 61 74 33 40 - - -
19/03:06am 10.2 - - - - N 65 83 35 45 - - -
19/03:00am 10.3 - - - - N 69 83 37 45 - - -
19/02:30am 10.1 - - - - N 65 85 35 46 - - -
19/02:23am 10.1 - - - - N 63 85 34 46 - - -
19/02:00am 9.9 - - - - N 59 74 32 40 - - -
19/01:30am 9.7 - - - - N 54 74 29 40 - - -
19/01:28am 9.7 - - - - NNE 54 74 29 40 - - -
19/01:00am 9.7 - - - - NNE 46 61 25 33 - - -
19/12:30am 9.6 - - - - NNE 44 57 24 31 - - -
19/12:00am 9.7 - - - - NNE 48 57 26 31 - - -
 
Date/Time
EDT
Temp
°C
App
Temp
°C
Dew
Point
°C
Rel
Hum
%
Delta-T
°C
Wind Press
QNH
hPa
Press
MSL
hPa
Rain since
9am
mm
Dir  Spd
km/h
Gust
km/h
Spd
kts
Gust
kts
18/11:30pm 9.5 - - - - N 43 54 23 29 - - -
18/11:00pm 9.6 - - - - N 46 56 25 30 - - -
18/10:30pm 9.8 - - - - N 44 52 24 28 - - -
18/10:00pm 10.0 - - - - N 39 46 21 25 - - -
18/09:30pm 10.1 - - - - N 37 44 20 24 - - -
18/09:00pm 10.5 - - - - N 39 46 21 25 - - -
18/08:30pm 11.1 - - - - N 33 39 18 21 - - -
18/08:00pm 11.3 - - - - N 32 37 17 20 - - -
18/07:30pm 12.0 - - - - N 28 35 15 19 - - -
18/07:00pm 12.2 - - - - NNW 24 32 13 17 - - -
18/06:30pm 13.3 - - - - NNW 24 28 13 15 - - -
18/06:00pm 14.2 - - - - NNW 19 28 10 15 - - -
18/05:30pm 14.9 - - - - N 17 22 9 12 - - -
18/05:00pm 15.3 - - - - NNW 17 30 9 16 - - -
18/04:30pm 16.0 - - - - NNE 20 28 11 15 - - -
18/04:00pm 15.6 - - - - N 15 20 8 11 - - -
18/03:30pm 15.2 - - - - NNW 15 24 8 13 - - -
18/03:00pm 14.5 - - - - N 15 28 8 15 - - -
18/02:30pm 14.4 - - - - NNW 15 24 8 13 - - -
18/02:00pm 14.4 - - - - NW 17 24 9 13 - - -
18/01:30pm 14.0 - - - - NNW 20 30 11 16 - - -
18/01:00pm 13.6 - - - - NNE 28 43 15 23 - - -
18/12:30pm 13.3 - - - - N 30 41 16 22 - - -
18/12:00pm 13.4 - - - - N 26 41 14 22 - - -
18/11:30am 12.1 - - - - N 32 43 17 23 - - -
18/11:00am 11.8 - - - - NNE 33 41 18 22 - - -
18/10:30am 11.8 - - - - NNE 37 46 20 25 - - -
18/10:00am 11.0 - - - - N 39 48 21 26 - - -
18/09:30am 10.5 - - - - NNE 43 56 23 30 - - -
18/09:00am 10.5 - - - - N 43 52 23 28 - - -
18/08:30am 10.0 - - - - N 46 52 25 28 - - -
18/08:00am 9.8 - - - - N 46 56 25 30 - - -
18/07:30am 9.9 - - - - NNE 46 56 25 30 - - -
18/07:00am 10.0 - - - - N 46 57 25 31 - - -
18/06:30am 9.7 - - - - NNE 48 57 26 31 - - -
18/06:00am 9.7 - - - - NNE 41 50 22 27 - - -
18/05:30am 9.8 - - - - NNE 41 46 22 25 - - -
18/05:00am 9.6 - - - - NNE 43 48 23 26 - - -
18/04:30am 10.1 - - - - NNE 44 52 24 28 - - -
18/04:00am 10.2 - - - - NNE 43 54 23 29 - - -
18/03:30am 10.2 - - - - NNE 41 46 22 25 - - -
18/03:00am 10.6 - - - - NNE 41 48 22 26 - - -
18/02:30am 9.7 - - - - NNE 30 33 16 18 - - -
18/02:00am 10.2 - - - - NNE 30 33 16 18 - - -
18/01:30am 10.7 - - - - NNE 32 37 17 20 - - -
18/01:00am 10.1 - - - - NNE 30 37 16 20 - - -
18/12:30am 10.9 - - - - NNE 32 35 17 19 - - -
18/12:00am 10.8 - - - - N 26 32 14 17 - - -
 
Date/Time
EDT
Temp
°C
App
Temp
°C
Dew
Point
°C
Rel
Hum
%
Delta-T
°C
Wind Press
QNH
hPa
Press
MSL
hPa
Rain since
9am
mm
Dir  Spd
km/h
Gust
km/h
Spd
kts
Gust
kts
17/11:30pm 10.9 - - - - N 26 30 14 16 - - -
17/11:00pm 10.8 - - - - N 22 26 12 14 - - -
17/10:30pm 10.7 - - - - NNE 19 22 10 12 - - -
17/10:00pm 10.9 - - - - NE 20 24 11 13 - - -
17/09:30pm 10.8 - - - - E 13 19 7 10 - - -
17/09:00pm 11.4 - - - - ENE 7 13 4 7 - - -
17/08:30pm 11.4 - - - - E 11 15 6 8 - - -
17/08:00pm 12.7 - - - - NNE 17 20 9 11 - - -
17/07:30pm 11.5 - - - - NNE 15 20 8 11 - - -
17/07:00pm 11.7 - - - - N 15 17 8 9 - - -
17/06:30pm 13.4 - - - - N 15 19 8 10 - - -
17/06:00pm 14.1 - - - - NNW 17 20 9 11 - - -
17/05:30pm 14.5 - - - - NNW 17 24 9 13 - - -
17/05:00pm 14.7 - - - - N 20 28 11 15 - - -
17/04:30pm 15.1 - - - - N 17 24 9 13 - - -
17/04:00pm 15.3 - - - - N 17 26 9 14 - - -
17/03:30pm 15.8 - - - - N 17 28 9 15 - - -
17/03:00pm 15.6 - - - - NW 17 20 9 11 - - -
17/02:30pm 14.9 - - - - NW 13 24 7 13 - - -
17/02:00pm 15.0 - - - - NW 13 20 7 11 - - -
17/01:30pm 15.7 - - - - N 22 32 12 17 - - -
17/01:00pm 14.4 - - - - NNE 20 28 11 15 - - -

Other Formats:

Comma delimited format used in spreadsheet applications
http://www.bom.gov.au/fwo/IDV60801/IDV60801.94906.axf

JavaScript Object Notation format (JSON) in row-major order
http://www.bom.gov.au/fwo/IDV60801/IDV60801.94906.json